Accueil
METAR-TAF:

METAR-TAF

Aéroports :

Cape Lisburne, Alaska, États-Unis

latitude: 68-53N, longitude: 166-06W, altitude: 4 m

Observation

Le bulletin a été fait il y a 17 minutes, à 18:18 UTC
Vent calme
Température 7°C
Humidité 100%
Pression 1000 hPa
Visibilité: 8.0 km
Nuages fragmentés à une hauteur de 200 ft
Nuages fragmentés à une hauteur de 1400 ft
Ciel couvert à une hauteur de 5500 ft
pluie faible

METAR: PALU 131818Z AUTO 00000KT 5SM -RA BKN002 BKN014 OVC055 07/07 A2954 RMK AO2 SLP002

Heure: 10:35 (18:35 UTC)


TAF: absent

Observations et prévisions météorologiques de plus de 4000 aéroports (messages METAR et TAF).

Les stations disponibles sont représentées par des disques jaunes et rouges sur la carte.

Passer la souris dessus pour voir le nom de la station.

Cliquer dessus pour voir les observations et prévisions météorologiques.

Pour changer de carte: cliquez sur les boutons verts avec une croix noire pour zoomer, sur le bouton vert avec un tiret pour effectuer un zoom arrière, ou sur les flèches vertes pour les cartes adjacentes.


METAR-TAF: